createdAt,value
2023-04-07T00:01:32.482Z,72.47
2023-04-07T00:04:35.161Z,72.41
2023-04-07T00:07:48.536Z,71.13
2023-04-07T00:10:59.559Z,71.67
2023-04-07T00:14:02.138Z,72.46
2023-04-07T00:17:07.385Z,73.02
2023-04-07T00:20:10.322Z,72.03
2023-04-07T00:23:12.795Z,72.88
2023-04-07T00:26:16.743Z,72.34
2023-04-07T00:29:19.260Z,72.80
2023-04-07T00:32:22.088Z,72.79
2023-04-07T00:35:24.897Z,72.71
2023-04-07T00:38:27.652Z,72.92
2023-04-07T00:41:31.593Z,72.12
2023-04-07T00:44:34.291Z,73.28
2023-04-07T00:47:37.172Z,73.79
2023-04-07T00:50:39.794Z,72.15
2023-04-07T00:53:42.810Z,73.64
2023-04-07T00:56:46.867Z,73.67
2023-04-07T00:59:49.465Z,73.39
2023-04-07T01:02:58.138Z,73.42
2023-04-07T01:06:02.370Z,74.26
2023-04-07T01:09:07.149Z,74.17
2023-04-07T01:12:19.247Z,73.71
2023-04-07T01:15:24.197Z,73.65
2023-04-07T01:18:30.733Z,73.95
2023-04-07T01:21:34.900Z,73.82
2023-04-07T01:24:55.972Z,74.27
2023-04-07T01:28:15.874Z,74.83
2023-04-07T01:31:19.947Z,74.59
2023-04-07T01:34:23.461Z,74.49
2023-04-07T01:37:27.881Z,73.79
2023-04-07T01:40:30.776Z,73.68
2023-04-07T01:43:33.524Z,74.34
2023-04-07T01:46:37.498Z,74.23
2023-04-07T01:49:41.973Z,73.89
2023-04-07T01:52:44.720Z,73.81
2023-04-07T01:55:47.262Z,73.66
2023-04-07T01:58:49.844Z,74.23
2023-04-07T02:01:53.874Z,73.75
2023-04-07T02:04:57.723Z,72.52
2023-04-07T02:08:00.941Z,71.55
2023-04-07T02:11:04.730Z,72.22
2023-04-07T02:14:08.245Z,72.37
2023-04-07T02:17:13.097Z,71.49
2023-04-07T02:20:17.018Z,71.65
2023-04-07T02:23:19.586Z,72.67
2023-04-07T02:26:22.439Z,70.55
2023-04-07T02:29:24.992Z,69.60
2023-04-07T02:32:28.905Z,70.48
2023-04-07T02:35:31.461Z,70.93
2023-04-07T02:38:34.319Z,71.20
2023-04-07T02:41:36.969Z,70.90
2023-04-07T02:44:39.555Z,71.64
2023-04-07T02:47:43.538Z,71.34
2023-04-07T02:50:46.241Z,71.53
2023-04-07T02:53:48.854Z,72.07
2023-04-07T02:56:51.596Z,71.92
2023-04-07T02:59:55.166Z,72.01
2023-04-07T03:02:59.285Z,72.48
2023-04-07T03:06:01.983Z,72.62
2023-04-07T03:09:04.721Z,72.65
2023-04-07T03:12:07.492Z,72.98
2023-04-07T03:15:10.707Z,73.09
2023-04-07T03:18:14.662Z,72.66
2023-04-07T03:21:17.218Z,72.96
2023-04-07T03:24:19.988Z,72.32
2023-04-07T03:27:22.651Z,72.07
2023-04-07T03:30:26.387Z,72.16
2023-04-07T03:33:30.321Z,72.25
2023-04-07T03:36:33.016Z,72.86
2023-04-07T03:39:37.302Z,72.50
2023-04-07T03:42:39.978Z,72.04
2023-04-07T03:45:42.743Z,72.77
2023-04-07T03:48:46.632Z,72.42
2023-04-07T03:51:49.194Z,72.08
2023-04-07T03:54:51.786Z,72.40
2023-04-07T03:57:54.387Z,71.50
2023-04-07T04:00:56.961Z,70.57
2023-04-07T04:04:00.972Z,70.19
2023-04-07T04:07:03.720Z,70.55
2023-04-07T04:10:07.542Z,70.46
2023-04-07T04:13:10.059Z,70.91
2023-04-07T04:16:15.102Z,70.23
2023-04-07T04:19:19.156Z,70.92
2023-04-07T04:22:21.882Z,70.55
2023-04-07T04:25:25.067Z,70.96
2023-04-07T04:28:27.828Z,72.29
2023-04-07T04:31:30.531Z,72.06
2023-04-07T04:34:34.504Z,71.75
2023-04-07T04:37:37.022Z,71.86
2023-04-07T04:40:39.613Z,72.12
2023-04-07T04:43:42.610Z,71.58
2023-04-07T04:46:45.324Z,72.40
2023-04-07T04:49:49.189Z,71.39
2023-04-07T04:52:51.788Z,71.43
2023-04-07T04:55:54.442Z,71.52
2023-04-07T04:58:57.037Z,71.65
2023-04-07T05:01:59.751Z,72.77
2023-04-07T05:05:03.953Z,72.99
2023-04-07T05:08:07.360Z,73.49
2023-04-07T05:11:09.929Z,72.82
2023-04-07T05:14:12.561Z,72.62
2023-04-07T05:17:15.153Z,73.14
2023-04-07T05:20:19.144Z,72.10
2023-04-07T05:23:21.941Z,72.03
2023-04-07T05:26:24.434Z,72.38
2023-04-07T05:29:26.901Z,72.44
2023-04-07T05:32:29.738Z,72.47
2023-04-07T05:35:33.689Z,71.97
2023-04-07T05:38:36.310Z,70.86
2023-04-07T05:41:38.983Z,70.56
2023-04-07T05:44:41.644Z,70.17
2023-04-07T05:47:44.323Z,70.05
2023-04-07T05:50:48.384Z,69.41
2023-04-07T05:53:51.044Z,68.99
2023-04-07T05:56:53.634Z,68.70
2023-04-07T05:59:56.496Z,68.71
2023-04-07T06:02:59.301Z,68.34
2023-04-07T06:06:03.360Z,68.66
2023-04-07T06:09:07.004Z,67.17
2023-04-07T06:12:12.245Z,66.79
2023-04-07T06:15:14.941Z,66.34
2023-04-07T06:18:17.650Z,66.78
2023-04-07T06:21:21.664Z,66.01
2023-04-07T06:24:25.260Z,65.40
2023-04-07T06:27:27.865Z,65.42
2023-04-07T06:30:30.684Z,64.73
2023-04-07T06:33:33.241Z,64.79
2023-04-07T06:36:37.597Z,64.70
2023-04-07T06:39:40.401Z,63.94
2023-04-07T06:42:42.985Z,63.69
2023-04-07T06:45:45.602Z,63.03
2023-04-07T06:48:48.204Z,62.38
2023-04-07T06:51:52.249Z,61.08
2023-04-07T06:54:54.998Z,60.34
2023-04-07T06:57:57.601Z,59.26
2023-04-07T07:01:00.997Z,59.22
2023-04-07T07:04:03.666Z,58.60
2023-04-07T07:07:07.795Z,58.58
2023-04-07T07:10:11.477Z,56.88
2023-04-07T07:13:13.891Z,57.01
2023-04-07T07:16:16.444Z,56.22
2023-04-07T07:19:19.025Z,56.74
2023-04-07T07:22:23.092Z,56.75
2023-04-07T07:25:26.823Z,56.30
2023-04-07T07:28:29.895Z,56.48
2023-04-07T07:31:32.581Z,56.32
2023-04-07T07:34:35.345Z,56.69
2023-04-07T07:37:39.200Z,57.51
2023-04-07T07:40:41.790Z,57.18
2023-04-07T07:43:44.400Z,56.78
2023-04-07T07:46:47.004Z,56.98
2023-04-07T07:49:49.779Z,58.24
2023-04-07T07:52:54.406Z,59.98
2023-04-07T07:55:56.971Z,60.83
2023-04-07T07:58:59.973Z,62.48
2023-04-07T08:02:02.612Z,62.13
2023-04-07T08:05:05.995Z,60.71
2023-04-07T08:08:09.989Z,60.82
2023-04-07T08:11:12.617Z,60.29
2023-04-07T08:14:15.357Z,59.45
2023-04-07T08:17:18.095Z,56.76
2023-04-07T08:20:24.030Z,53.95
2023-04-07T08:23:34.507Z,51.89
2023-04-07T08:26:44.550Z,49.69
2023-04-07T08:29:47.095Z,46.75
2023-04-07T08:32:50.393Z,45.41
2023-04-07T08:35:53.029Z,46.71
2023-04-07T08:38:56.940Z,46.28
2023-04-07T08:41:59.480Z,46.17
2023-04-07T08:45:04.307Z,46.42
2023-04-07T08:48:11.920Z,46.28
2023-04-07T08:51:15.209Z,48.05
2023-04-07T08:54:21.661Z,49.06
2023-04-07T08:57:24.391Z,48.54
2023-04-07T09:00:27.438Z,49.56
2023-04-07T09:03:31.126Z,48.88
2023-04-07T09:06:34.046Z,49.59
2023-04-07T09:09:38.085Z,48.88
2023-04-07T09:12:41.141Z,48.35
2023-04-07T09:15:43.686Z,48.21
2023-04-07T09:18:46.284Z,46.99
2023-04-07T09:21:50.554Z,45.92
2023-04-07T09:24:54.527Z,47.27
2023-04-07T09:27:58.177Z,48.44
2023-04-07T09:31:00.903Z,48.32
2023-04-07T09:34:04.386Z,47.94
2023-04-07T09:37:09.456Z,46.86
2023-04-07T09:40:13.444Z,45.42
2023-04-07T09:43:17.609Z,43.90
2023-04-07T09:46:20.932Z,43.55
2023-04-07T09:49:24.373Z,41.52
2023-04-07T09:52:31.132Z,41.00
2023-04-07T09:55:35.265Z,39.26
2023-04-07T09:58:39.296Z,40.12
2023-04-07T10:01:46.623Z,38.98
2023-04-07T10:04:51.892Z,38.07
2023-04-07T10:07:54.679Z,38.33
2023-04-07T10:10:58.757Z,39.27
2023-04-07T10:14:01.637Z,38.59
2023-04-07T10:17:05.334Z,38.84
2023-04-07T10:20:09.579Z,39.15
2023-04-07T10:23:17.853Z,39.35
2023-04-07T10:26:25.458Z,38.82
2023-04-07T10:29:30.204Z,39.72
2023-04-07T10:32:32.834Z,38.79
2023-04-07T10:36:06.549Z,39.14
2023-04-07T10:39:22.301Z,38.60
2023-04-07T10:42:50.793Z,38.77
2023-04-07T10:45:59.512Z,39.02
2023-04-07T10:49:09.786Z,39.64
2023-04-07T10:52:24.014Z,39.04
2023-04-07T10:55:31.772Z,37.94
2023-04-07T10:58:36.056Z,38.23
2023-04-07T11:01:38.674Z,37.38
2023-04-07T11:04:42.705Z,36.74
2023-04-07T11:07:54.988Z,37.22
2023-04-07T11:10:57.488Z,36.47
2023-04-07T11:14:28.097Z,35.12
2023-04-07T11:17:30.857Z,35.43
2023-04-07T11:20:46.148Z,34.52
2023-04-07T11:23:49.360Z,36.20
2023-04-07T11:26:52.525Z,36.21
2023-04-07T11:29:57.660Z,36.78
2023-04-07T11:33:00.298Z,37.18
2023-04-07T11:36:03.887Z,37.92
2023-04-07T11:39:06.819Z,38.16
2023-04-07T11:42:09.421Z,38.87
2023-04-07T11:45:19.593Z,39.70
2023-04-07T11:48:30.966Z,39.16
2023-04-07T11:51:33.516Z,40.23
2023-04-07T11:54:43.092Z,42.39
2023-04-07T11:57:45.794Z,44.83
2023-04-07T12:01:03.551Z,45.42
2023-04-07T12:04:06.503Z,47.54
2023-04-07T12:07:10.437Z,46.51
2023-04-07T12:10:20.104Z,47.38
2023-04-07T12:13:22.708Z,52.25
2023-04-07T12:16:26.880Z,55.94
2023-04-07T12:19:30.369Z,59.14
2023-04-07T12:22:33.223Z,62.77
2023-04-07T12:25:36.341Z,64.69
2023-04-07T12:28:38.887Z,62.58
2023-04-07T12:31:43.661Z,63.32
2023-04-07T12:34:47.836Z,61.64
2023-04-07T12:37:51.891Z,62.02
2023-04-07T12:40:54.433Z,62.14
2023-04-07T12:43:57.041Z,61.26
2023-04-07T12:47:01.687Z,60.26
2023-04-07T12:50:04.818Z,59.02
2023-04-07T12:53:07.427Z,57.08
2023-04-07T12:56:10.046Z,53.74
2023-04-07T12:59:12.982Z,53.27
2023-04-07T13:02:19.127Z,53.33
2023-04-07T13:05:22.176Z,52.84
2023-04-07T13:08:24.879Z,51.90
2023-04-07T13:11:27.672Z,51.50
2023-04-07T13:14:30.251Z,49.16
2023-04-07T13:17:36.395Z,47.46
2023-04-07T13:20:38.975Z,46.47
2023-04-07T13:23:43.892Z,46.61
2023-04-07T13:26:46.905Z,45.97
2023-04-07T13:29:49.450Z,45.76
2023-04-07T13:32:53.316Z,45.35
2023-04-07T13:35:55.945Z,47.66
2023-04-07T13:38:58.690Z,48.73
2023-04-07T13:42:01.876Z,49.81
2023-04-07T13:45:04.956Z,50.43
2023-04-07T13:48:08.842Z,51.36
2023-04-07T13:51:11.525Z,51.44
2023-04-07T13:54:13.990Z,51.35
2023-04-07T13:57:21.014Z,51.90
2023-04-07T14:00:23.772Z,50.89
2023-04-07T14:03:28.236Z,49.36
2023-04-07T14:06:31.583Z,49.32
2023-04-07T14:09:34.191Z,49.21
2023-04-07T14:12:37.051Z,48.93
2023-04-07T14:15:39.774Z,47.75
2023-04-07T14:18:43.686Z,47.88
2023-04-07T14:21:46.317Z,47.12
2023-04-07T14:24:48.822Z,46.00
2023-04-07T14:27:52.316Z,45.90
2023-04-07T14:30:55.046Z,46.75
2023-04-07T14:33:58.921Z,47.10
2023-04-07T14:37:01.704Z,47.32
2023-04-07T14:40:05.034Z,46.12
2023-04-07T14:43:07.959Z,45.72
2023-04-07T14:46:12.288Z,46.57
2023-04-07T14:49:16.589Z,47.32
2023-04-07T14:52:20.507Z,47.25
2023-04-07T14:55:23.557Z,48.06
2023-04-07T14:58:26.120Z,48.44
2023-04-07T15:01:28.906Z,49.50
2023-04-07T15:04:33.179Z,49.49
2023-04-07T15:07:36.337Z,49.61
2023-04-07T15:10:39.213Z,49.25
2023-04-07T15:13:41.758Z,49.13
2023-04-07T15:16:44.255Z,47.57
2023-04-07T15:19:48.202Z,45.60
2023-04-07T15:22:51.123Z,44.88
2023-04-07T15:25:56.109Z,45.47
2023-04-07T15:28:58.674Z,45.07
2023-04-07T15:32:01.911Z,45.29
2023-04-07T15:35:06.705Z,44.77
2023-04-07T15:38:09.246Z,44.17
2023-04-07T15:41:15.421Z,44.51
2023-04-07T15:44:18.914Z,44.61
2023-04-07T15:47:21.328Z,41.82
2023-04-07T15:50:25.501Z,41.38
2023-04-07T15:53:28.156Z,38.90
2023-04-07T15:56:30.842Z,36.60
2023-04-07T15:59:34.243Z,36.09
2023-04-07T16:02:36.993Z,36.69
2023-04-07T16:05:40.995Z,38.61
2023-04-07T16:08:43.815Z,36.25
2023-04-07T16:11:46.358Z,37.63
2023-04-07T16:14:50.276Z,41.04
2023-04-07T16:17:52.920Z,43.92
2023-04-07T16:20:56.898Z,44.46
2023-04-07T16:23:59.411Z,45.05
2023-04-07T16:27:04.178Z,45.90
2023-04-07T16:30:08.270Z,47.00
2023-04-07T16:33:11.014Z,46.44
2023-04-07T16:36:15.328Z,47.01
2023-04-07T16:39:18.565Z,46.97
2023-04-07T16:42:21.524Z,47.71
2023-04-07T16:45:24.108Z,48.13
2023-04-07T16:48:27.063Z,48.16
2023-04-07T16:51:31.815Z,48.37
2023-04-07T16:54:35.333Z,50.30
2023-04-07T16:57:37.838Z,50.67
2023-04-07T17:00:40.446Z,50.80
2023-04-07T17:03:43.298Z,50.96
2023-04-07T17:06:47.383Z,51.53
2023-04-07T17:09:50.134Z,53.00
2023-04-07T17:12:56.058Z,54.97
2023-04-07T17:15:58.795Z,54.55
2023-04-07T17:19:01.779Z,55.51
2023-04-07T17:22:06.001Z,55.16
2023-04-07T17:25:09.620Z,56.33
2023-04-07T17:28:12.021Z,56.82
2023-04-07T17:31:14.678Z,58.48
2023-04-07T17:34:17.405Z,59.34
2023-04-07T17:37:21.558Z,60.12
2023-04-07T17:40:24.460Z,60.13
2023-04-07T17:43:27.088Z,60.27
2023-04-07T17:46:29.889Z,61.45
2023-04-07T17:49:32.526Z,60.10
2023-04-07T17:52:36.443Z,59.79
2023-04-07T17:55:39.134Z,59.89
2023-04-07T17:58:41.810Z,60.50
2023-04-07T18:01:44.460Z,59.83
2023-04-07T18:04:47.092Z,61.51
2023-04-07T18:07:51.086Z,61.32
2023-04-07T18:10:53.625Z,61.82
2023-04-07T18:13:56.470Z,61.74
2023-04-07T18:16:59.142Z,61.72
2023-04-07T18:20:02.135Z,61.92
2023-04-07T18:23:06.195Z,62.04
2023-04-07T18:26:08.811Z,62.48
2023-04-07T18:29:12.323Z,62.82
2023-04-07T18:32:14.868Z,63.23
2023-04-07T18:35:17.396Z,62.59
2023-04-07T18:38:21.355Z,63.11
2023-04-07T18:41:23.918Z,63.11
2023-04-07T18:44:28.445Z,62.48
2023-04-07T18:47:30.967Z,62.11
2023-04-07T18:50:33.553Z,62.37
2023-04-07T18:53:37.603Z,62.15
2023-04-07T18:56:40.210Z,62.31
2023-04-07T18:59:43.737Z,63.34
2023-04-07T19:02:47.496Z,63.31
2023-04-07T19:05:52.505Z,63.88
2023-04-07T19:08:56.854Z,64.43
2023-04-07T19:11:59.426Z,65.03
2023-04-07T19:15:01.903Z,65.60
2023-04-07T19:18:04.831Z,66.15
2023-04-07T19:21:07.972Z,66.51
2023-04-07T19:24:11.828Z,66.44
2023-04-07T19:27:14.707Z,67.04
2023-04-07T19:30:17.575Z,67.56
2023-04-07T19:33:20.543Z,68.14
2023-04-07T19:36:23.116Z,68.06
2023-04-07T19:39:27.235Z,68.29
2023-04-07T19:42:29.864Z,68.37
2023-04-07T19:45:32.574Z,68.14
2023-04-07T19:48:35.383Z,67.72
2023-04-07T19:51:38.035Z,67.46
2023-04-07T19:54:42.204Z,66.59
2023-04-07T19:57:44.700Z,66.73
2023-04-07T20:00:49.685Z,66.96
2023-04-07T20:03:52.446Z,66.94
2023-04-07T20:06:55.278Z,67.15
2023-04-07T20:09:59.924Z,67.68
2023-04-07T20:13:03.370Z,67.66
2023-04-07T20:16:06.807Z,67.92
2023-04-07T20:19:09.518Z,67.87
2023-04-07T20:22:12.088Z,67.25
2023-04-07T20:25:16.173Z,67.75
2023-04-07T20:28:18.667Z,67.52
2023-04-07T20:31:21.595Z,67.37
2023-04-07T20:34:24.101Z,67.45
2023-04-07T20:37:27.862Z,67.53
2023-04-07T20:40:35.181Z,67.75
2023-04-07T20:43:37.803Z,67.96
2023-04-07T20:46:40.690Z,67.92
2023-04-07T20:49:43.795Z,68.56
2023-04-07T20:52:46.446Z,68.45
2023-04-07T20:55:50.562Z,69.50
2023-04-07T20:58:53.137Z,69.46
2023-04-07T21:01:56.450Z,69.64
2023-04-07T21:04:59.332Z,69.64
2023-04-07T21:08:02.022Z,69.45
2023-04-07T21:11:06.147Z,68.82
2023-04-07T21:14:08.613Z,68.58
2023-04-07T21:17:11.219Z,68.70
2023-04-07T21:20:14.014Z,69.24
2023-04-07T21:23:16.666Z,68.57
2023-04-07T21:26:20.904Z,68.71
2023-04-07T21:29:23.417Z,68.60
2023-04-07T21:32:26.129Z,68.10
2023-04-07T21:35:29.319Z,68.10
2023-04-07T21:38:32.081Z,67.94
2023-04-07T21:41:36.505Z,68.50
2023-04-07T21:44:39.152Z,68.31
2023-04-07T21:47:41.769Z,68.43
2023-04-07T21:50:44.340Z,68.66
2023-04-07T21:53:46.858Z,68.72
2023-04-07T21:56:51.549Z,68.21
2023-04-07T21:59:54.074Z,69.35
2023-04-07T22:02:56.867Z,69.36
2023-04-07T22:05:59.903Z,69.22
2023-04-07T22:09:02.666Z,69.53
2023-04-07T22:12:06.590Z,68.97
2023-04-07T22:15:10.924Z,69.02
2023-04-07T22:18:13.676Z,69.55
2023-04-07T22:21:16.577Z,70.28
2023-04-07T22:24:19.170Z,69.68
2023-04-07T22:27:23.091Z,69.77
2023-04-07T22:30:26.133Z,69.58
2023-04-07T22:33:29.095Z,69.26
2023-04-07T22:36:33.501Z,68.75
2023-04-07T22:39:36.103Z,68.37
2023-04-07T22:42:40.566Z,68.76
2023-04-07T22:45:43.101Z,69.25
2023-04-07T22:48:45.585Z,69.70
2023-04-07T22:51:48.634Z,69.49
2023-04-07T22:54:51.293Z,69.97
2023-04-07T22:57:55.304Z,70.52
2023-04-07T23:00:57.916Z,70.73
2023-04-07T23:04:00.840Z,71.60
2023-04-07T23:07:03.402Z,71.58
2023-04-07T23:10:07.962Z,71.55
2023-04-07T23:13:13.324Z,72.02
2023-04-07T23:16:16.544Z,72.35
2023-04-07T23:19:19.170Z,72.98
2023-04-07T23:22:22.061Z,72.75
2023-04-07T23:25:24.780Z,72.40
2023-04-07T23:28:28.897Z,72.81
2023-04-07T23:31:32.116Z,72.72
2023-04-07T23:34:34.760Z,72.50
2023-04-07T23:37:37.308Z,72.76
2023-04-07T23:40:39.811Z,72.68
2023-04-07T23:43:43.759Z,72.87
2023-04-07T23:46:46.265Z,72.93
2023-04-07T23:49:48.922Z,72.39
2023-04-07T23:52:51.461Z,72.52
2023-04-07T23:55:54.131Z,72.75
2023-04-07T23:58:58.011Z,73.88
